createdAt,value
2023-02-05T00:00:28.779Z,-14383.34
2023-02-05T00:01:32.145Z,-13749.38
2023-02-05T00:02:35.266Z,-13431.97
2023-02-05T00:03:39.525Z,-12800.88
2023-02-05T00:04:42.467Z,-12168.28
2023-02-05T00:05:45.469Z,-11534.28
2023-02-05T00:06:48.229Z,-10901.16
2023-02-05T00:07:51.236Z,-10268.00
2023-02-05T00:08:53.872Z,-9316.72
2023-02-05T00:09:56.512Z,-8364.47
2023-02-05T00:10:59.159Z,-7413.50
2023-02-05T00:12:01.809Z,-6142.47
2023-02-05T00:13:04.555Z,-5190.00
2023-02-05T00:14:07.321Z,-4237.00
2023-02-05T00:15:10.615Z,-2647.50
2023-02-05T00:16:14.622Z,-1375.28
2023-02-05T00:17:17.212Z,534.66
2023-02-05T00:18:19.809Z,2126.88
2023-02-05T00:19:22.326Z,2763.94
2023-02-05T00:20:24.973Z,3719.72
2023-02-05T00:21:27.851Z,4676.03
2023-02-05T00:22:30.429Z,5313.69
2023-02-05T00:23:34.018Z,6270.59
2023-02-05T00:24:36.660Z,7865.88
2023-02-05T00:25:39.180Z,9142.59
2023-02-05T00:26:41.942Z,10737.84
2023-02-05T00:27:44.970Z,11375.63
2023-02-05T00:28:49.624Z,11375.56
2023-02-05T00:29:52.156Z,10738.41
2023-02-05T00:30:55.135Z,11377.28
2023-02-05T00:31:57.664Z,11696.81
2023-02-05T00:33:00.201Z,12017.34
2023-02-05T00:34:02.827Z,13614.78
2023-02-05T00:35:05.709Z,14574.03
2023-02-05T00:36:11.827Z,15532.19
2023-02-05T00:37:15.306Z,16170.44
2023-02-05T00:38:17.945Z,15531.44
2023-02-05T00:39:20.466Z,15531.22
2023-02-05T00:40:23.227Z,15530.34
2023-02-05T00:41:25.722Z,14890.81
2023-02-05T00:42:28.275Z,13933.22
2023-02-05T00:43:31.274Z,13933.41
2023-02-05T00:44:33.930Z,13614.78
2023-02-05T00:45:36.846Z,13934.84
2023-02-05T00:46:39.439Z,14574.03
2023-02-05T00:47:42.198Z,14894.16
2023-02-05T00:48:45.204Z,14894.34
2023-02-05T00:49:47.715Z,15851.84
2023-02-05T00:50:51.554Z,15852.16
2023-02-05T00:51:54.196Z,15531.88
2023-02-05T00:52:56.840Z,15212.38
2023-02-05T00:53:59.478Z,14573.63
2023-02-05T00:55:02.125Z,14574.25
2023-02-05T00:56:05.255Z,14893.09
2023-02-05T00:57:07.888Z,14574.44
2023-02-05T00:58:11.000Z,14893.63
2023-02-05T00:59:13.525Z,14573.94
2023-02-05T01:00:16.880Z,14574.66
2023-02-05T01:01:19.419Z,14894.16
2023-02-05T01:02:24.347Z,14575.25
2023-02-05T01:03:26.989Z,14577.09
2023-02-05T01:04:29.619Z,15536.25
2023-02-05T01:05:34.948Z,16176.75
2023-02-05T01:06:37.775Z,17455.69
2023-02-05T01:07:41.373Z,18096.75
2023-02-05T01:08:43.893Z,19055.78
2023-02-05T01:09:46.534Z,19376.34
2023-02-05T01:10:50.757Z,19376.34
2023-02-05T01:11:53.497Z,19697.38
2023-02-05T01:12:56.261Z,20017.56
2023-02-05T01:13:58.791Z,20018.44
2023-02-05T01:15:02.402Z,20980.19
2023-02-05T01:16:06.615Z,21624.09
2023-02-05T01:17:09.588Z,22904.69
2023-02-05T01:18:12.229Z,23546.13
2023-02-05T01:19:14.885Z,24507.97
2023-02-05T01:20:18.113Z,25147.63
2023-02-05T01:21:20.878Z,25148.19
2023-02-05T01:22:24.241Z,25146.50
2023-02-05T01:23:26.767Z,24506.88
2023-02-05T01:24:29.521Z,24828.81
2023-02-05T01:25:32.429Z,25149.69
2023-02-05T01:26:35.522Z,25149.50
2023-02-05T01:27:38.286Z,26112.16
2023-02-05T01:28:41.049Z,26111.16
2023-02-05T01:29:43.928Z,25793.13
2023-02-05T01:30:51.120Z,26114.91
2023-02-05T01:31:54.642Z,26437.16
2023-02-05T01:32:57.620Z,27080.81
2023-02-05T01:34:00.755Z,28365.91
2023-02-05T01:35:04.109Z,29650.41
2023-02-05T01:36:07.249Z,31257.81
2023-02-05T01:37:10.460Z,32543.81
2023-02-05T01:38:14.183Z,33509.03
2023-02-05T01:39:17.307Z,34793.16
2023-02-05T01:40:20.665Z,34474.22
2023-02-05T01:41:23.784Z,35436.97
2023-02-05T01:42:29.306Z,34796.38
2023-02-05T01:43:32.436Z,35112.63
2023-02-05T01:44:36.871Z,34796.94
2023-02-05T01:45:53.918Z,35445.19
2023-02-05T01:46:57.637Z,37690.44
2023-02-05T01:48:03.034Z,37049.34
2023-02-05T01:49:08.195Z,37371.19
2023-02-05T01:50:11.319Z,37692.78
2023-02-05T01:51:16.118Z,37693.06
2023-02-05T01:52:19.364Z,38337.19
2023-02-05T01:53:30.405Z,38017.03
2023-02-05T01:54:38.458Z,38019.41
2023-02-05T01:55:46.008Z,38341.97
2023-02-05T01:57:01.849Z,38989.00
2023-02-05T01:58:05.100Z,40919.59
2023-02-05T01:59:13.971Z,41886.66
2023-02-05T02:00:17.212Z,43174.63
2023-02-05T02:01:21.092Z,43817.72
2023-02-05T02:02:24.175Z,43174.97
2023-02-05T02:03:31.025Z,43499.06
2023-02-05T02:04:44.251Z,43821.16
2023-02-05T02:05:47.108Z,44462.97
2023-02-05T02:06:50.222Z,44467.50
2023-02-05T02:07:52.985Z,45112.91
2023-02-05T02:08:55.747Z,46080.72
2023-02-05T02:09:59.236Z,46407.75
2023-02-05T02:11:05.958Z,48018.56
2023-02-05T02:12:11.001Z,49633.34
2023-02-05T02:13:14.114Z,50922.09
2023-02-05T02:14:17.958Z,50924.09
2023-02-05T02:15:25.876Z,49957.47
2023-02-05T02:16:29.977Z,50599.47
2023-02-05T02:17:39.372Z,49632.94
2023-02-05T02:18:43.043Z,49308.84
2023-02-05T02:20:11.982Z,47377.47
2023-02-05T02:21:23.655Z,48985.94
2023-02-05T02:22:52.339Z,47378.22
2023-02-05T02:24:33.581Z,46731.94
2023-02-05T02:25:49.217Z,45121.44
2023-02-05T02:27:00.902Z,44156.47
2023-02-05T02:28:17.057Z,43834.59
2023-02-05T02:29:49.100Z,43835.63
2023-02-05T02:31:27.923Z,45121.78
2023-02-05T02:32:47.073Z,44800.22
2023-02-05T02:34:05.420Z,45445.88
2023-02-05T02:35:17.750Z,45445.13
2023-02-05T02:36:25.563Z,44798.13
2023-02-05T02:37:36.872Z,44478.00
2023-02-05T02:38:53.187Z,44797.06
2023-02-05T02:39:59.907Z,46402.66
2023-02-05T02:41:13.563Z,45760.97
2023-02-05T02:42:26.039Z,44796.34
2023-02-05T02:43:37.563Z,44144.66
2023-02-05T02:44:52.473Z,42533.59
2023-02-05T02:46:05.889Z,41568.94
2023-02-05T02:47:28.375Z,40279.97
2023-02-05T02:48:34.116Z,40277.47
2023-02-05T02:49:42.397Z,39956.56
2023-02-05T02:50:49.836Z,38992.66
2023-02-05T02:51:53.798Z,38994.47
2023-02-05T02:52:57.400Z,39318.44
2023-02-05T02:54:04.723Z,39963.41
2023-02-05T02:55:11.326Z,40610.13
2023-02-05T02:56:19.487Z,41897.81
2023-02-05T02:57:26.444Z,42543.28
2023-02-05T02:58:38.085Z,42865.03
2023-02-05T02:59:43.732Z,43182.78
2023-02-05T03:00:48.558Z,41571.53
2023-02-05T03:01:58.375Z,40284.06
2023-02-05T03:03:06.309Z,40601.88
2023-02-05T03:04:20.094Z,38994.47
2023-02-05T03:05:24.546Z,38670.59
2023-02-05T03:06:29.451Z,37385.44
2023-02-05T03:07:37.976Z,38026.78
2023-02-05T03:08:46.492Z,37386.00
2023-02-05T03:09:52.503Z,38348.53
2023-02-05T03:11:03.543Z,38675.09
2023-02-05T03:12:07.385Z,39638.75
2023-02-05T03:13:11.346Z,39321.50
2023-02-05T03:14:17.473Z,39964.69
2023-02-05T03:15:20.230Z,40284.69
2023-02-05T03:16:25.803Z,39640.91
2023-02-05T03:17:29.830Z,39637.22
2023-02-05T03:18:33.192Z,39312.31
2023-02-05T03:19:36.198Z,38026.78
2023-02-05T03:20:45.795Z,37381.38
2023-02-05T03:21:56.719Z,35452.06
2023-02-05T03:22:59.474Z,34809.03
2023-02-05T03:24:02.374Z,34167.13
2023-02-05T03:25:06.087Z,34168.47
2023-02-05T03:26:42.324Z,34490.47
2023-02-05T03:28:00.379Z,36418.75
2023-02-05T03:29:10.299Z,36420.16
2023-02-05T03:30:16.052Z,36737.81
2023-02-05T03:31:30.539Z,35131.63
2023-02-05T03:33:00.932Z,34489.69
2023-02-05T03:34:20.750Z,34169.00
2023-02-05T03:35:32.019Z,35453.97
2023-02-05T03:36:51.217Z,35776.94
2023-02-05T03:38:25.422Z,35455.06
2023-02-05T03:39:58.302Z,34489.16
2023-02-05T03:41:22.666Z,33845.69
2023-02-05T03:42:54.469Z,33201.81
2023-02-05T03:44:13.556Z,32558.34
2023-02-05T03:45:54.606Z,30629.75
2023-02-05T03:47:20.996Z,29663.31
2023-02-05T03:48:29.404Z,28700.09
2023-02-05T03:50:10.813Z,27097.41
2023-02-05T03:51:29.406Z,27419.00
2023-02-05T03:52:38.409Z,27096.16
2023-02-05T03:54:02.162Z,27094.53
2023-02-05T03:55:11.656Z,26133.22
2023-02-05T03:56:27.969Z,26134.41
2023-02-05T03:57:40.690Z,26454.31
2023-02-05T03:58:51.372Z,26129.88
2023-02-05T03:59:57.015Z,25165.00
2023-02-05T04:01:01.366Z,23882.56
2023-02-05T04:02:06.312Z,22918.97
2023-02-05T04:03:15.856Z,21316.25
2023-02-05T04:04:19.337Z,20033.38
2023-02-05T04:05:23.418Z,19391.59
2023-02-05T04:07:04.029Z,18433.31
2023-02-05T04:08:14.900Z,18433.06
2023-02-05T04:09:22.716Z,18113.06
2023-02-05T04:10:25.826Z,17472.69
2023-02-05T04:11:28.828Z,17791.28
2023-02-05T04:12:31.588Z,16829.19
2023-02-05T04:13:34.478Z,15547.81
2023-02-05T04:14:38.792Z,13628.41
2023-02-05T04:15:41.436Z,12667.66
2023-02-05T04:16:46.495Z,11068.03
2023-02-05T04:17:49.565Z,9469.59
2023-02-05T04:18:52.289Z,7553.16
2023-02-05T04:19:54.760Z,6275.50
2023-02-05T04:20:57.456Z,4998.19
2023-02-05T04:22:01.743Z,3083.59
2023-02-05T04:23:07.539Z,2126.59
2023-02-05T04:24:10.273Z,532.06
2023-02-05T04:25:12.772Z,-742.75
2023-02-05T04:26:16.032Z,-1698.59
2023-02-05T04:27:26.258Z,-3291.81
2023-02-05T04:28:30.097Z,-3927.91
2023-02-05T04:29:32.984Z,-4882.72
2023-02-05T04:30:36.146Z,-5838.38
2023-02-05T04:31:39.887Z,-6473.91
2023-02-05T04:32:42.903Z,-7429.16
2023-02-05T04:33:46.182Z,-7746.59
2023-02-05T04:34:50.863Z,-8701.44
2023-02-05T04:35:59.113Z,-9337.94
2023-02-05T04:37:02.477Z,-9973.34
2023-02-05T04:38:06.110Z,-10609.34
2023-02-05T04:39:08.636Z,-10927.63
2023-02-05T04:40:11.632Z,-11244.03
2023-02-05T04:41:14.275Z,-11562.38
2023-02-05T04:42:17.244Z,-11244.91
2023-02-05T04:43:19.791Z,-10928.16
2023-02-05T04:44:22.434Z,-10927.41
2023-02-05T04:45:29.139Z,-10926.53
2023-02-05T04:46:31.674Z,-10608.81
2023-02-05T04:47:35.036Z,-10609.34
2023-02-05T04:48:38.662Z,-10610.41
2023-02-05T04:49:41.277Z,-9338.03
2023-02-05T04:50:43.797Z,-9338.03
2023-02-05T04:51:46.323Z,-9019.38
2023-02-05T04:52:48.839Z,-8701.63
2023-02-05T04:53:51.365Z,-8700.91
2023-02-05T04:54:53.878Z,-8700.00
2023-02-05T04:56:08.298Z,-9972.13
2023-02-05T04:57:10.802Z,-9015.91
2023-02-05T04:58:13.326Z,-9334.38
2023-02-05T04:59:15.962Z,-9016.66
2023-02-05T05:00:18.606Z,-9334.09
2023-02-05T05:01:23.079Z,-9653.25
2023-02-05T05:02:25.876Z,-9017.22
2023-02-05T05:03:28.567Z,-9652.66
2023-02-05T05:04:31.103Z,-9652.44
2023-02-05T05:05:36.453Z,-10924.91
2023-02-05T05:06:39.007Z,-10288.66
2023-02-05T05:07:41.647Z,-10607.00
2023-02-05T05:08:44.531Z,-11242.56
2023-02-05T05:09:47.047Z,-10925.66
2023-02-05T05:10:49.569Z,-11243.69
2023-02-05T05:11:52.933Z,-11879.91
2023-02-05T05:12:55.340Z,-11878.75
2023-02-05T05:13:58.341Z,-12513.66
2023-02-05T05:15:01.101Z,-12513.41
2023-02-05T05:16:05.456Z,-12830.56
2023-02-05T05:17:08.076Z,-12828.31
2023-02-05T05:18:10.594Z,-12829.06
2023-02-05T05:19:13.227Z,-12829.44
2023-02-05T05:20:15.876Z,-13146.63
2023-02-05T05:21:18.390Z,-12828.31
2023-02-05T05:22:20.908Z,-12828.31
2023-02-05T05:23:23.550Z,-12511.56
2023-02-05T05:24:26.191Z,-12192.88
2023-02-05T05:25:28.715Z,-11875.94
2023-02-05T05:26:31.249Z,-11876.63
2023-02-05T05:27:33.759Z,-11876.28
2023-02-05T05:28:36.882Z,-11875.81
2023-02-05T05:29:39.525Z,-11875.13
2023-02-05T05:30:45.195Z,-12510.47
2023-02-05T05:31:47.881Z,-12193.81
2023-02-05T05:32:50.695Z,-11876.63
2023-02-05T05:33:53.464Z,-11876.63
2023-02-05T05:34:57.322Z,-11877.34
2023-02-05T05:36:00.296Z,-12195.63
2023-02-05T05:37:03.293Z,-12513.88
2023-02-05T05:38:06.896Z,-12831.53
2023-02-05T05:39:28.985Z,-13466.50
2023-02-05T05:40:51.076Z,-13782.75
2023-02-05T05:42:12.541Z,-14101.63
2023-02-05T05:43:37.145Z,-14737.19
2023-02-05T05:44:40.387Z,-14736.06
2023-02-05T05:45:43.531Z,-15052.09
2023-02-05T05:46:46.749Z,-15368.63
2023-02-05T05:47:49.872Z,-15369.19
2023-02-05T05:48:58.049Z,-16323.38
2023-02-05T05:50:01.169Z,-15686.56
2023-02-05T05:51:04.407Z,-15687.31
2023-02-05T05:52:07.640Z,-15687.16
2023-02-05T05:53:10.767Z,-15686.13
2023-02-05T05:54:13.884Z,-15687.31
2023-02-05T05:55:17.009Z,-15688.06
2023-02-05T05:56:20.123Z,-15688.50
2023-02-05T05:57:23.246Z,-15689.53
2023-02-05T05:58:26.367Z,-15690.56
2023-02-05T05:59:29.747Z,-16006.78
2023-02-05T06:00:32.877Z,-16007.22
2023-02-05T06:01:35.968Z,-16324.28
2023-02-05T06:02:42.112Z,-16959.91
2023-02-05T06:03:45.227Z,-16643.19
2023-02-05T06:04:48.849Z,-16643.19
2023-02-05T06:05:52.298Z,-16642.88
2023-02-05T06:06:55.538Z,-16641.31
2023-02-05T06:07:58.899Z,-16640.06
2023-02-05T06:09:02.032Z,-16959.25
2023-02-05T06:10:05.862Z,-16955.16
2023-02-05T06:11:08.880Z,-16956.88
2023-02-05T06:12:11.986Z,-16958.31
2023-02-05T06:13:14.874Z,-16957.38
2023-02-05T06:14:17.991Z,-17276.88
2023-02-05T06:15:21.236Z,-17276.72
2023-02-05T06:16:24.112Z,-17593.81
2023-02-05T06:17:28.197Z,-17595.47
2023-02-05T06:18:31.405Z,-17593.00
2023-02-05T06:19:34.077Z,-17912.75
2023-02-05T06:20:37.092Z,-17912.06
2023-02-05T06:21:40.438Z,-18228.63
2023-02-05T06:22:42.897Z,-18229.63
2023-02-05T06:23:45.605Z,-18229.97
2023-02-05T06:24:48.125Z,-18229.81
2023-02-05T06:25:50.825Z,-18547.53
2023-02-05T06:26:53.407Z,-18547.03
2023-02-05T06:27:56.003Z,-18547.53
2023-02-05T06:29:03.359Z,-18861.94
2023-02-05T06:30:06.300Z,-18861.59
2023-02-05T06:31:09.177Z,-18860.19
2023-02-05T06:32:11.778Z,-18863.34
2023-02-05T06:33:14.461Z,-18863.34
2023-02-05T06:34:17.060Z,-18863.69
2023-02-05T06:35:19.628Z,-18863.69
2023-02-05T06:36:22.230Z,-19181.38
2023-02-05T06:37:46.320Z,-19180.47
2023-02-05T06:38:49.829Z,-19179.97
2023-02-05T06:39:52.385Z,-19180.84
2023-02-05T06:40:55.028Z,-19180.84
2023-02-05T06:41:57.432Z,-19183.13
2023-02-05T06:43:00.100Z,-19183.13
2023-02-05T06:44:04.036Z,-19182.78
2023-02-05T06:45:07.031Z,-19182.97
2023-02-05T06:46:09.565Z,-19184.19
2023-02-05T06:47:12.072Z,-19501.19
2023-02-05T06:48:14.595Z,-19501.72
2023-02-05T06:49:17.236Z,-19819.06
2023-02-05T06:50:20.241Z,-19816.88
2023-02-05T06:51:22.854Z,-19815.97
2023-02-05T06:52:25.372Z,-19815.59
2023-02-05T06:53:28.036Z,-20131.59
2023-02-05T06:54:30.801Z,-20130.84
2023-02-05T06:55:33.651Z,-20132.50
2023-02-05T06:56:36.319Z,-20130.66
2023-02-05T06:57:38.847Z,-20131.41
2023-02-05T06:58:41.364Z,-20130.28
2023-02-05T06:59:43.879Z,-20131.22
2023-02-05T07:00:46.402Z,-20131.59
2023-02-05T07:01:49.313Z,-20130.47
2023-02-05T07:02:53.293Z,-19810.69
2023-02-05T07:03:56.389Z,-19811.25
2023-02-05T07:04:58.901Z,-19811.06
2023-02-05T07:06:05.371Z,-19812.16
2023-02-05T07:07:08.135Z,-19811.41
2023-02-05T07:08:10.652Z,-19811.59
2023-02-05T07:09:13.170Z,-19811.59
2023-02-05T07:10:15.816Z,-19813.97
2023-02-05T07:11:18.335Z,-19816.16
2023-02-05T07:12:21.456Z,-19815.06
2023-02-05T07:13:23.973Z,-19496.88
2023-02-05T07:14:26.492Z,-19814.34
2023-02-05T07:15:29.016Z,-19496.88
2023-02-05T07:16:31.536Z,-19496.00
2023-02-05T07:17:34.062Z,-19496.53
2023-02-05T07:18:36.588Z,-19496.34
2023-02-05T07:19:39.223Z,-19495.28
2023-02-05T07:20:41.747Z,-19493.31
2023-02-05T07:21:44.276Z,-19493.66
2023-02-05T07:22:49.793Z,-19494.72
2023-02-05T07:23:52.309Z,-19495.09
2023-02-05T07:24:54.835Z,-19179.06
2023-02-05T07:25:57.353Z,-19181.38
2023-02-05T07:26:59.880Z,-19181.19
2023-02-05T07:28:06.775Z,-19499.03
2023-02-05T07:29:09.718Z,-19498.31
2023-02-05T07:30:13.089Z,-19500.13
2023-02-05T07:31:18.783Z,-19499.41
2023-02-05T07:32:21.365Z,-19497.25
2023-02-05T07:33:24.005Z,-19498.69
2023-02-05T07:34:26.886Z,-19497.78
2023-02-05T07:35:30.973Z,-19817.44
2023-02-05T07:36:33.731Z,-19815.59
2023-02-05T07:37:37.592Z,-19815.78
2023-02-05T07:38:40.340Z,-19814.69
2023-02-05T07:39:43.343Z,-19817.59
2023-02-05T07:40:46.336Z,-19817.06
2023-02-05T07:41:49.467Z,-19818.69
2023-02-05T07:43:01.817Z,-19818.88
2023-02-05T07:44:04.945Z,-19818.34
2023-02-05T07:45:08.423Z,-19819.78
2023-02-05T07:46:14.713Z,-19821.06
2023-02-05T07:47:17.790Z,-19816.50
2023-02-05T07:48:21.024Z,-19817.59
2023-02-05T07:49:24.506Z,-19821.06
2023-02-05T07:50:27.632Z,-19820.88
2023-02-05T07:51:30.751Z,-19821.44
2023-02-05T07:52:34.355Z,-19820.88
2023-02-05T07:53:37.595Z,-19820.53
2023-02-05T07:54:40.833Z,-19821.06
2023-02-05T07:55:43.955Z,-19820.53
2023-02-05T07:56:47.076Z,-19821.59
2023-02-05T07:57:50.320Z,-20140.25
2023-02-05T07:58:53.439Z,-20139.88
2023-02-05T07:59:56.563Z,-20141.38
2023-02-05T08:01:04.002Z,-20144.69
2023-02-05T08:02:07.126Z,-20140.44
2023-02-05T08:03:10.736Z,-20142.66
2023-02-05T08:04:14.008Z,-20142.66
2023-02-05T08:05:17.103Z,-20142.84
2023-02-05T08:06:20.341Z,-20144.13
2023-02-05T08:07:23.573Z,-20141.53
2023-02-05T08:08:26.937Z,-20142.84
2023-02-05T08:09:30.057Z,-20142.84
2023-02-05T08:10:34.024Z,-20143.97
2023-02-05T08:11:37.261Z,-20141.72
2023-02-05T08:12:40.502Z,-20143.97
2023-02-05T08:13:45.079Z,-20145.06
2023-02-05T08:14:47.957Z,-20143.59
2023-02-05T08:15:50.826Z,-20146.91
2023-02-05T08:16:53.831Z,-20146.53
2023-02-05T08:17:56.592Z,-20146.16
2023-02-05T08:18:59.476Z,-20148.75
2023-02-05T08:20:07.400Z,-20148.56
2023-02-05T08:21:10.099Z,-20148.03
2023-02-05T08:22:12.922Z,-20147.09
2023-02-05T08:23:15.698Z,-20147.66
2023-02-05T08:24:18.441Z,-20150.59
2023-02-05T08:25:21.082Z,-20150.59
2023-02-05T08:26:23.537Z,-20153.56
2023-02-05T08:27:29.317Z,-20153.38
2023-02-05T08:28:32.616Z,-20150.97
2023-02-05T08:29:35.199Z,-20153.19
2023-02-05T08:30:39.148Z,-20154.84
2023-02-05T08:31:41.809Z,-20151.88
2023-02-05T08:32:49.357Z,-20155.03
2023-02-05T08:33:55.068Z,-20153.00
2023-02-05T08:34:58.984Z,-20153.91
2023-02-05T08:36:01.671Z,-20153.19
2023-02-05T08:37:04.663Z,-20155.41
2023-02-05T08:38:07.221Z,-20155.75
2023-02-05T08:39:09.748Z,-20157.97
2023-02-05T08:40:13.001Z,-20159.09
2023-02-05T08:41:16.944Z,-20159.81
2023-02-05T08:42:19.911Z,-20163.16
2023-02-05T08:43:22.558Z,-20164.25
2023-02-05T08:44:25.229Z,-20165.72
2023-02-05T08:45:28.524Z,-20165.38
2023-02-05T08:46:40.382Z,-20166.47
2023-02-05T08:47:51.243Z,-20169.44
2023-02-05T08:48:54.152Z,-20174.41
2023-02-05T08:49:56.762Z,-20177.91
2023-02-05T08:50:59.440Z,-20181.97
2023-02-05T08:52:02.922Z,-20186.03
2023-02-05T08:53:07.247Z,-20183.63
2023-02-05T08:54:13.561Z,-20189.34
2023-02-05T08:55:18.398Z,-20191.94
2023-02-05T08:56:21.169Z,-20195.63
2023-02-05T08:57:30.397Z,-20204.13
2023-02-05T08:58:33.416Z,-20206.69
2023-02-05T08:59:35.934Z,-20200.44
2023-02-05T09:00:40.250Z,-20202.28
2023-02-05T09:01:43.485Z,-20207.06
2023-02-05T09:02:46.135Z,-20206.88
2023-02-05T09:03:48.640Z,-20208.56
2023-02-05T09:04:54.519Z,-20208.91
2023-02-05T09:06:06.169Z,-20210.03
2023-02-05T09:07:09.417Z,-20206.69
2023-02-05T09:08:12.553Z,-20211.50
2023-02-05T09:09:16.732Z,-20215.56
2023-02-05T09:10:27.877Z,-20215.56
2023-02-05T09:11:30.890Z,-20217.78
2023-02-05T09:12:33.650Z,-20217.97
2023-02-05T09:13:36.646Z,-20219.44
2023-02-05T09:14:39.772Z,-20220.72
2023-02-05T09:15:48.524Z,-20221.09
2023-02-05T09:16:51.204Z,-20222.56
2023-02-05T09:17:53.689Z,-20224.78
2023-02-05T09:18:58.352Z,-20226.81
2023-02-05T09:20:01.391Z,-20223.13
2023-02-05T09:21:07.985Z,-20224.78
2023-02-05T09:22:12.308Z,-20223.69
2023-02-05T09:23:16.499Z,-20224.41
2023-02-05T09:24:19.047Z,-20225.91
2023-02-05T09:25:21.547Z,-20228.13
2023-02-05T09:26:24.665Z,-20229.78
2023-02-05T09:27:27.318Z,-20230.31
2023-02-05T09:28:30.190Z,-20229.97
2023-02-05T09:29:32.715Z,-20229.22
2023-02-05T09:30:39.549Z,-20227.75
2023-02-05T09:31:42.302Z,-20227.38
2023-02-05T09:32:45.077Z,-20231.81
2023-02-05T09:33:47.731Z,-20233.28
2023-02-05T09:34:50.600Z,-20234.38
2023-02-05T09:35:53.245Z,-20235.50
2023-02-05T09:36:55.889Z,-20238.44
2023-02-05T09:37:59.612Z,-20241.41
2023-02-05T09:39:14.132Z,-20244.91
2023-02-05T09:40:28.483Z,-20243.97
2023-02-05T09:41:43.173Z,-20246.38
2023-02-05T09:43:00.440Z,-20247.31
2023-02-05T09:44:26.033Z,-20246.38
2023-02-05T09:46:07.433Z,-20239.19
2023-02-05T09:47:10.307Z,-20237.72
2023-02-05T09:48:24.824Z,-20238.09
2023-02-05T09:49:35.027Z,-20234.75
2023-02-05T09:50:40.080Z,-20229.97
2023-02-05T09:51:51.484Z,-20231.44
2023-02-05T09:53:00.832Z,-20228.84
2023-02-05T09:54:19.084Z,-20227.56
2023-02-05T09:55:26.876Z,-20224.41
2023-02-05T09:56:30.716Z,-20222.00
2023-02-05T09:57:39.599Z,-20224.78
2023-02-05T09:58:48.240Z,-20224.06
2023-02-05T09:59:51.362Z,-20219.25
2023-02-05T10:01:04.270Z,-20219.25
2023-02-05T10:02:34.923Z,-20219.63
2023-02-05T10:03:47.645Z,-20219.25
2023-02-05T10:04:55.210Z,-20219.81
2023-02-05T10:06:10.691Z,-20221.47
2023-02-05T10:07:42.974Z,-20223.31
2023-02-05T10:08:54.857Z,-20224.06
2023-02-05T10:10:16.576Z,-20228.47
2023-02-05T10:11:30.621Z,-20229.97
2023-02-05T10:12:51.980Z,-20232.53
2023-02-05T10:14:25.822Z,-20232.34
2023-02-05T10:16:02.089Z,-20240.66
2023-02-05T10:17:16.108Z,-20242.88
2023-02-05T10:18:30.516Z,-20243.44
2023-02-05T10:20:02.085Z,-20249.16
2023-02-05T10:21:42.225Z,-20259.13
2023-02-05T10:22:53.794Z,-20261.34
2023-02-05T10:23:59.445Z,-20264.28
2023-02-05T10:25:20.616Z,-20261.88
2023-02-05T10:26:33.336Z,-20258.75
2023-02-05T10:27:46.562Z,-20257.66
2023-02-05T10:29:07.848Z,-20257.47
2023-02-05T10:30:21.954Z,-20255.25
2023-02-05T10:32:02.623Z,-20252.47
2023-02-05T10:33:19.136Z,-20248.97
2023-02-05T10:35:01.541Z,-20246.19
2023-02-05T10:36:07.676Z,-20246.94
2023-02-05T10:37:18.466Z,-20246.00
2023-02-05T10:38:24.709Z,-20247.31
2023-02-05T10:39:30.793Z,-20241.75
2023-02-05T10:40:40.150Z,-20240.66
2023-02-05T10:41:48.119Z,-20239.56
2023-02-05T10:43:02.394Z,-20236.59
2023-02-05T10:44:26.003Z,-20235.13
2023-02-05T10:45:30.234Z,-20229.22
2023-02-05T10:46:37.126Z,-20230.31
2023-02-05T10:47:58.560Z,-20225.91
2023-02-05T10:49:15.801Z,-20228.13
2023-02-05T10:50:36.600Z,-20226.81
2023-02-05T10:51:44.516Z,-20229.22
2023-02-05T10:52:47.154Z,-20226.44
2023-02-05T10:53:49.673Z,-20224.78
2023-02-05T10:54:52.320Z,-20222.19
2023-02-05T10:55:56.637Z,-20225.34
2023-02-05T10:57:00.357Z,-20225.91
2023-02-05T10:58:26.050Z,-20225.91
2023-02-05T10:59:35.879Z,-20227.56
2023-02-05T11:00:40.213Z,-20224.41
2023-02-05T11:01:44.997Z,-19904.56
2023-02-05T11:02:55.032Z,-20226.25
2023-02-05T11:04:19.806Z,-19908.41
2023-02-05T11:05:31.440Z,-19907.84
2023-02-05T11:06:40.202Z,-19909.13
2023-02-05T11:07:47.528Z,-19911.47
2023-02-05T11:08:50.172Z,-19590.50
2023-02-05T11:09:52.687Z,-19591.22
2023-02-05T11:10:55.329Z,-19591.22
2023-02-05T11:12:07.090Z,-19911.47
2023-02-05T11:13:20.406Z,-19915.84
2023-02-05T11:14:34.088Z,-19914.03
2023-02-05T11:15:36.607Z,-19595.16
2023-02-05T11:16:43.454Z,-19916.94
2023-02-05T11:17:51.728Z,-19918.03
2023-02-05T11:19:00.246Z,-19920.22
2023-02-05T11:20:25.117Z,-19919.50
2023-02-05T11:21:47.540Z,-20238.78
2023-02-05T11:23:04.695Z,-19918.59
2023-02-05T11:24:30.859Z,-20237.31
2023-02-05T11:25:33.499Z,-19915.66
2023-02-05T11:26:36.142Z,-20236.59
2023-02-05T11:27:39.392Z,-20237.69
2023-02-05T11:28:42.099Z,-20239.34
2023-02-05T11:29:44.787Z,-20240.81
2023-02-05T11:30:51.075Z,-20240.28
2023-02-05T11:31:54.224Z,-20242.13
2023-02-05T11:32:57.756Z,-20243.03
2023-02-05T11:34:11.675Z,-20243.59
2023-02-05T11:35:26.321Z,-20245.44
2023-02-05T11:36:29.076Z,-20245.25
2023-02-05T11:37:31.598Z,-20248.03
2023-02-05T11:38:57.200Z,-20250.06
2023-02-05T11:40:00.050Z,-20247.66
2023-02-05T11:41:08.096Z,-20250.06
2023-02-05T11:42:19.365Z,-20255.44
2023-02-05T11:43:34.974Z,-20258.75
2023-02-05T11:44:48.769Z,-20258.75
2023-02-05T11:45:54.058Z,-20263.56
2023-02-05T11:46:59.586Z,-20265.75
2023-02-05T11:48:07.031Z,-20266.69
2023-02-05T11:49:21.663Z,-20270.00
2023-02-05T11:50:29.459Z,-20276.47
2023-02-05T11:51:35.463Z,-20278.31
2023-02-05T11:52:38.584Z,-20277.94
2023-02-05T11:54:02.954Z,-20281.09
2023-02-05T11:55:07.149Z,-20281.28
2023-02-05T11:56:23.689Z,-20286.81
2023-02-05T11:57:39.014Z,-20286.25
2023-02-05T11:58:42.269Z,-20292.34
2023-02-05T12:00:04.172Z,-20288.47
2023-02-05T12:01:22.292Z,-20290.88
2023-02-05T12:02:25.644Z,-20288.84
2023-02-05T12:03:33.451Z,-20288.47
2023-02-05T12:04:46.888Z,-20285.34
2023-02-05T12:06:04.973Z,-20285.53
2023-02-05T12:07:15.329Z,-20284.59
2023-02-05T12:08:27.693Z,-20280.72
2023-02-05T12:09:30.934Z,-20283.50
2023-02-05T12:10:44.616Z,-20287.19
2023-02-05T12:12:19.181Z,-20289.75
2023-02-05T12:13:45.720Z,-20294.19
2023-02-05T12:14:55.065Z,-20293.81
2023-02-05T12:16:08.313Z,-20296.78
2023-02-05T12:17:23.651Z,-20296.78
2023-02-05T12:19:00.290Z,-20302.69
2023-02-05T12:20:33.387Z,-20310.06
2023-02-05T12:22:01.077Z,-20313.38
2023-02-05T12:23:18.959Z,-20310.81
2023-02-05T12:24:40.471Z,-20309.50
2023-02-05T12:25:49.082Z,-20310.25
2023-02-05T12:27:01.564Z,-20310.06
2023-02-05T12:28:24.487Z,-20307.31
2023-02-05T12:29:54.370Z,-20308.22
2023-02-05T12:31:22.327Z,-20302.69
2023-02-05T12:32:25.090Z,-20296.78
2023-02-05T12:33:33.310Z,-20297.16
2023-02-05T12:34:54.137Z,-20301.22
2023-02-05T12:36:32.895Z,-20300.84
2023-02-05T12:38:07.942Z,-20298.81
2023-02-05T12:39:45.269Z,-20301.38
2023-02-05T12:41:15.502Z,-20303.25
2023-02-05T12:42:32.071Z,-20299.72
2023-02-05T12:43:46.624Z,-20298.63
2023-02-05T12:45:15.185Z,-20297.53
2023-02-05T12:46:26.470Z,-20297.16
2023-02-05T12:47:40.718Z,-20293.81
2023-02-05T12:48:56.227Z,-20296.03
2023-02-05T12:50:03.998Z,-20295.31
2023-02-05T12:51:54.549Z,-20298.25
2023-02-05T12:53:18.787Z,-20295.66
2023-02-05T12:54:31.153Z,-20294.19
2023-02-05T12:55:52.278Z,-20298.63
2023-02-05T12:57:05.838Z,-20297.34
2023-02-05T12:58:12.072Z,-20298.44
2023-02-05T12:59:19.881Z,-20298.25
2023-02-05T13:00:30.799Z,-20299.00